Time;durP1;ratioP1;P1;durP2;ratioP2;P2;SDS_P1;SDS_P2;PMS_P1;PMS_P2;Temp;Humidity;BMP_temperature;BMP_pressure;BME280_temperature;BME280_humidity;BME280_pressure;Samples;Min_cycle;Max_cycle;Signal;HPM_P1;HPM_P2
2021/04/16 00:01:29;;;;;;;0.93;0.40;;;;;;;17.65;49.95;103231.28;6294496;22;20003;-77
2021/04/16 00:03:54;;;;;;;0.70;0.40;;;;;;;17.64;49.99;103229.53;6295706;22;20011;-77
2021/04/16 00:06:20;;;;;;;0.30;0.30;;;;;;;17.62;50.06;103220.81;6324603;22;20067;-77
2021/04/16 00:08:46;;;;;;;0.47;0.40;;;;;;;17.63;50.31;103224.28;6296447;22;20016;-77
2021/04/16 00:11:17;;;;;;;0.45;0.32;;;;;;;17.64;49.78;103220.84;6347234;22;20013;-76
2021/04/16 00:13:43;;;;;;;0.65;0.50;;;;;;;17.63;50.07;103216.47;6348891;22;20007;-77
2021/04/16 00:16:15;;;;;;;0.50;0.40;;;;;;;17.64;49.92;103220.84;6323047;22;20014;-77
2021/04/16 00:18:41;;;;;;;0.75;0.50;;;;;;;17.62;50.01;103215.59;6351054;22;20006;-76
2021/04/16 00:21:07;;;;;;;0.82;0.32;;;;;;;17.61;49.88;103208.59;6355210;22;20526;-76
2021/04/16 00:23:33;;;;;;;0.60;0.40;;;;;;;17.62;49.85;103204.31;6347557;22;20026;-77
2021/04/16 00:25:59;;;;;;;0.55;0.30;;;;;;;17.61;49.96;103199.91;6347287;22;20456;-76
2021/04/16 00:28:25;;;;;;;0.40;0.30;;;;;;;17.60;50.07;103198.19;6345934;22;20003;-77
2021/04/16 00:30:55;;;;;;;1.00;0.40;;;;;;;17.59;50.12;103192.06;6346813;22;20007;-77
2021/04/16 00:33:21;;;;;;;0.98;0.43;;;;;;;17.59;49.95;103196.38;6342904;22;20002;-77
2021/04/16 00:35:46;;;;;;;0.47;0.40;;;;;;;17.60;49.99;103191.22;6345334;22;20006;-77
2021/04/16 00:38:13;;;;;;;0.80;0.40;;;;;;;17.60;49.81;103198.19;6291565;22;19999;-77
2021/04/16 00:40:44;;;;;;;0.40;0.30;;;;;;;17.57;49.78;103185.97;6344423;22;20085;-77
2021/04/16 00:43:12;;;;;;;0.75;0.50;;;;;;;17.57;50.24;103192.84;6345100;22;20009;-77
2021/04/16 00:45:39;;;;;;;0.30;0.30;;;;;;;17.58;50.16;103192.91;6346358;22;19994;-77
2021/04/16 00:48:08;;;;;;;0.20;0.20;;;;;;;17.55;49.96;103186.72;6344379;22;19999;-77
2021/04/16 00:50:38;;;;;;;0.35;0.30;;;;;;;17.55;49.86;103189.31;6345483;22;20002;-77
2021/04/16 00:53:04;;;;;;;0.95;0.50;;;;;;;17.56;49.88;103185.91;6344996;22;20040;-77
2021/04/16 00:55:30;;;;;;;0.55;0.35;;;;;;;17.56;49.84;103186.78;6318387;22;20011;-76
2021/04/16 00:57:55;;;;;;;0.55;0.45;;;;;;;17.53;49.69;103183.19;6341733;22;20002;-77
2021/04/16 01:00:24;;;;;;;0.30;0.30;;;;;;;17.54;49.83;103183.25;6343178;22;20083;-77
2021/04/16 01:02:50;;;;;;;0.30;0.30;;;;;;;17.54;50.03;103180.66;6343568;22;20416;-77
2021/04/16 01:05:16;;;;;;;0.43;0.30;;;;;;;17.53;49.67;103178.00;6344101;22;20040;-77
2021/04/16 01:07:41;;;;;;;1.48;0.40;;;;;;;17.52;49.67;103181.44;6344583;22;20007;-77
2021/04/16 01:10:08;;;;;;;0.30;0.30;;;;;;;17.50;49.97;103173.59;6316989;22;20041;-76
2021/04/16 01:12:34;;;;;;;0.43;0.35;;;;;;;17.51;49.88;103177.06;6346463;22;20337;-77
2021/04/16 01:15:14;;;;;;;0.25;0.20;;;;;;;17.51;49.90;103171.84;6344936;22;20098;-77
2021/04/16 01:17:40;;;;;;;0.75;0.40;;;;;;;17.52;49.83;103171.91;6321686;22;20009;-77
2021/04/16 01:20:15;;;;;;;0.45;0.30;;;;;;;17.50;49.92;103167.50;6348046;22;20007;-77
2021/04/16 01:22:51;;;;;;;0.75;0.30;;;;;;;17.51;49.98;103179.66;6351623;22;20009;-77
2021/04/16 01:25:18;;;;;;;0.30;0.30;;;;;;;17.50;49.87;103175.31;6354091;22;20050;-77
2021/04/16 01:27:43;;;;;;;0.38;0.38;;;;;;;17.47;49.69;103163.97;6362060;22;20007;-77
2021/04/16 01:30:17;;;;;;;0.35;0.30;;;;;;;17.49;49.66;103166.63;6361385;22;20007;-77
2021/04/16 01:32:42;;;;;;;0.38;0.38;;;;;;;17.47;49.70;103171.78;6356022;22;20033;-76
2021/04/16 01:35:15;;;;;;;0.35;0.30;;;;;;;17.47;49.76;103176.13;6349706;22;20063;-77
2021/04/16 01:37:41;;;;;;;0.30;0.30;;;;;;;17.47;49.82;103174.38;6346679;22;19998;-76
2021/04/16 01:40:08;;;;;;;1.02;0.40;;;;;;;17.46;49.79;103175.25;6348115;22;19999;-77
2021/04/16 01:42:34;;;;;;;0.73;0.40;;;;;;;17.45;49.68;103176.06;6343755;22;20007;-77
2021/04/16 01:44:59;;;;;;;0.40;0.30;;;;;;;17.46;49.74;103182.16;6317266;22;20041;-77
2021/04/16 01:47:25;;;;;;;0.57;0.40;;;;;;;17.46;49.88;103176.94;6315167;22;20007;-77
2021/04/16 01:49:52;;;;;;;0.40;0.30;;;;;;;17.45;49.92;103181.28;6340700;22;19998;-76
2021/04/16 01:52:34;;;;;;;0.63;0.30;;;;;;;17.44;50.00;103173.41;6340482;22;20036;-76
2021/04/16 01:55:01;;;;;;;0.70;0.40;;;;;;;17.44;49.85;103174.31;6338154;22;20002;-77
2021/04/16 01:57:31;;;;;;;0.40;0.30;;;;;;;17.42;49.75;103165.56;6312419;22;20003;-77
2021/04/16 01:59:56;;;;;;;0.68;0.40;;;;;;;17.43;49.78;103163.84;6338850;22;20306;-76
2021/04/16 02:02:34;;;;;;;0.30;0.30;;;;;;;17.42;49.66;103169.88;6337597;22;20032;-76
2021/04/16 02:05:00;;;;;;;0.25;0.25;;;;;;;17.42;49.85;103167.28;6338977;22;20156;-77
2021/04/16 02:07:26;;;;;;;0.88;0.40;;;;;;;17.41;49.54;103169.00;6342724;22;19999;-77
2021/04/16 02:09:52;;;;;;;0.30;0.30;;;;;;;17.41;49.54;103168.13;6315690;22;20006;-77
2021/04/16 02:12:23;;;;;;;0.25;0.20;;;;;;;17.41;49.78;103166.41;6316517;22;20009;-77
2021/04/16 02:14:51;;;;;;;0.30;0.30;;;;;;;17.40;49.56;103164.66;6319899;22;20461;-77
2021/04/16 02:17:19;;;;;;;0.52;0.40;;;;;;;17.38;49.72;103161.13;6313904;22;20007;-76
2021/04/16 02:19:45;;;;;;;0.30;0.20;;;;;;;17.39;49.73;103159.38;6315529;22;20007;-77
2021/04/16 02:22:17;;;;;;;0.40;0.40;;;;;;;17.38;49.88;103160.25;6289139;22;20006;-77
2021/04/16 02:24:43;;;;;;;1.05;0.30;;;;;;;17.37;49.94;103158.47;6318483;22;20053;-77
2021/04/16 02:27:08;;;;;;;0.30;0.30;;;;;;;17.36;49.82;103154.13;6334996;22;20003;-77
2021/04/16 02:29:34;;;;;;;0.30;0.30;;;;;;;17.37;49.67;103153.25;6334290;22;19991;-77
2021/04/16 02:31:59;;;;;;;0.52;0.30;;;;;;;17.37;49.78;103154.13;6334395;22;20010;-77
2021/04/16 02:34:28;;;;;;;0.30;0.30;;;;;;;17.36;49.66;103156.72;6306884;22;20007;-76
2021/04/16 02:36:57;;;;;;;1.35;0.40;;;;;;;17.37;49.77;103161.06;6333724;22;20014;-77
2021/04/16 02:39:23;;;;;;;0.40;0.30;;;;;;;17.34;49.92;103161.88;6333932;22;20048;-77
2021/04/16 02:41:49;;;;;;;0.70;0.30;;;;;;;17.34;49.95;103151.47;6332677;22;20007;-77
2021/04/16 02:44:16;;;;;;;0.30;0.30;;;;;;;17.35;49.75;103155.81;6331245;22;20070;-77
2021/04/16 02:46:41;;;;;;;0.40;0.30;;;;;;;17.36;49.63;103154.13;6337995;22;20002;-77
2021/04/16 02:51:32;;;;;;;0.70;0.35;;;;;;;17.35;49.68;103148.00;6358231;22;20034;-76
2021/04/16 02:53:58;;;;;;;0.38;0.30;;;;;;;17.35;49.83;103149.72;6365145;22;20011;-76
2021/04/16 02:56:24;;;;;;;0.70;0.40;;;;;;;17.33;49.49;103148.81;6363553;22;20098;-77
2021/04/16 02:58:49;;;;;;;0.40;0.30;;;;;;;17.33;49.59;103152.28;6362428;22;20038;-77
2021/04/16 03:01:16;;;;;;;0.85;0.30;;;;;;;17.35;49.52;103155.81;6361565;22;20421;-76
2021/04/16 03:03:41;;;;;;;0.30;0.30;;;;;;;17.32;49.64;103145.31;6356105;22;20106;-77
2021/04/16 03:06:07;;;;;;;0.60;0.30;;;;;;;17.31;49.72;103142.66;6336655;22;20049;-77
2021/04/16 03:08:33;;;;;;;0.30;0.30;;;;;;;17.32;49.66;103144.44;6323251;22;20027;-77
2021/04/16 03:10:59;;;;;;;0.50;0.30;;;;;;;17.30;49.63;103147.00;6301714;22;20074;-77
2021/04/16 03:13:25;;;;;;;0.35;0.30;;;;;;;17.31;49.79;103145.28;6300012;22;20027;-76
2021/04/16 03:15:51;;;;;;;0.25;0.20;;;;;;;17.29;49.73;103140.03;6299893;22;20499;-77
2021/04/16 03:20:54;;;;;;;0.30;0.30;;;;;;;17.28;49.70;103138.25;6374542;22;20348;-77
2021/04/16 03:23:20;;;;;;;0.30;0.30;;;;;;;17.27;49.79;103133.91;6360682;22;20010;-77
2021/04/16 03:25:45;;;;;;;0.40;0.35;;;;;;;17.26;49.56;103139.94;6358704;22;20008;-77
2021/04/16 03:28:11;;;;;;;0.47;0.40;;;;;;;17.30;49.42;103140.91;6358994;22;20024;-77
2021/04/16 03:30:37;;;;;;;0.40;0.30;;;;;;;17.27;49.81;103145.19;6337689;22;20147;-76
2021/04/16 03:33:03;;;;;;;0.30;0.30;;;;;;;17.26;49.85;103135.63;6357493;22;20013;-77
2021/04/16 03:35:28;;;;;;;0.55;0.30;;;;;;;17.28;49.90;103138.25;6355067;22;20016;-77
2021/04/16 03:37:54;;;;;;;0.45;0.40;;;;;;;17.26;49.65;103138.22;6356231;22;20032;-77
2021/04/16 03:40:24;;;;;;;0.40;0.30;;;;;;;17.25;49.69;103133.00;6340979;22;20015;-77
2021/04/16 03:42:49;;;;;;;0.38;0.28;;;;;;;17.26;49.92;103138.22;6329802;22;20080;-76
2021/04/16 03:45:15;;;;;;;0.30;0.30;;;;;;;17.30;49.71;103144.41;6330194;22;19999;-76
2021/04/16 03:47:42;;;;;;;0.65;0.20;;;;;;;17.28;49.65;103138.25;6275931;22;20012;-76
2021/04/16 03:50:08;;;;;;;0.38;0.20;;;;;;;17.30;49.56;103141.78;6275408;22;19996;-77
2021/04/16 03:52:34;;;;;;;0.35;0.20;;;;;;;17.29;49.99;103134.84;6275218;22;20046;-77
2021/04/16 03:55:00;;;;;;;0.20;0.20;;;;;;;17.30;49.74;103136.59;6287493;22;20022;-77
2021/04/16 03:57:25;;;;;;;0.32;0.28;;;;;;;17.30;49.88;103131.38;6306692;22;20011;-77
2021/04/16 03:59:53;;;;;;;0.50;0.30;;;;;;;17.28;49.70;103135.66;6307703;22;19991;-77
2021/04/16 04:02:19;;;;;;;0.30;0.20;;;;;;;17.27;49.88;103139.13;6334523;22;20050;-77
2021/04/16 04:04:44;;;;;;;0.30;0.30;;;;;;;17.28;49.93;103136.53;6281962;22;20011;-77
2021/04/16 04:15:22;;;;;;;0.20;0.20;;;;;;;17.29;49.87;103147.84;6396744;22;20044;-77
2021/04/16 04:17:47;;;;;;;0.38;0.32;;;;;;;17.30;49.71;103148.72;6316128;22;20014;-76
2021/04/16 04:22:48;;;;;;;0.30;0.30;;;;;;;17.32;49.55;103152.25;6366297;22;20074;-76
2021/04/16 04:25:20;;;;;;;0.32;0.30;;;;;;;17.30;49.86;103157.41;6365514;22;19987;-77
2021/04/16 04:27:47;;;;;;;0.40;0.30;;;;;;;17.26;49.75;103140.81;6365917;22;19991;-76
2021/04/16 04:30:13;;;;;;;0.20;0.20;;;;;;;17.26;49.68;103139.94;6365534;22;20009;-77
2021/04/16 04:32:39;;;;;;;0.40;0.30;;;;;;;17.28;49.72;103141.75;6364807;22;19999;-76
2021/04/16 04:35:05;;;;;;;0.25;0.22;;;;;;;17.28;49.73;103146.94;6353118;22;20003;-77
2021/04/16 04:37:30;;;;;;;0.30;0.30;;;;;;;17.30;49.58;103146.13;6338554;22;20022;-78
2021/04/16 04:39:56;;;;;;;0.28;0.28;;;;;;;17.31;49.92;103137.47;6370323;22;20002;-76
2021/04/16 04:42:21;;;;;;;0.30;0.30;;;;;;;17.31;49.68;103134.88;6343305;22;19990;-76
2021/04/16 04:44:47;;;;;;;0.20;0.20;;;;;;;17.31;49.54;103142.66;6343633;22;20003;-77
2021/04/16 04:49:47;;;;;;;0.25;0.20;;;;;;;17.32;49.58;103142.72;6368108;22;20021;-76
2021/04/16 04:52:22;;;;;;;0.22;0.22;;;;;;;17.31;49.84;103135.78;6344255;22;19999;-76
2021/04/16 04:54:50;;;;;;;0.20;0.20;;;;;;;17.32;49.78;103137.53;6369730;22;20002;-76
2021/04/16 04:57:18;;;;;;;0.20;0.20;;;;;;;17.34;49.80;103138.44;6397266;22;20050;-76
2021/04/16 04:59:44;;;;;;;0.55;0.30;;;;;;;17.35;49.76;103142.78;6369688;22;19998;-76
2021/04/16 05:02:10;;;;;;;0.20;0.20;;;;;;;17.37;49.44;103142.84;6368323;22;19998;-76
2021/04/16 05:04:36;;;;;;;0.47;0.20;;;;;;;17.38;49.21;103139.44;6395466;22;20016;-76
2021/04/16 05:07:01;;;;;;;0.30;0.30;;;;;;;17.41;49.41;103142.09;6369135;22;20002;-77
2021/04/16 05:09:27;;;;;;;0.22;0.22;;;;;;;17.38;49.57;103135.09;6342571;22;20098;-77
2021/04/16 05:11:52;;;;;;;1.02;0.40;;;;;;;17.52;49.54;103137.19;6343737;22;20010;-77
2021/04/16 05:14:18;;;;;;;3.33;0.30;;;;;;;17.62;49.65;103147.03;6395791;22;20010;-76
2021/04/16 05:16:44;;;;;;;0.90;0.30;;;;;;;17.60;50.03;103138.28;6344609;22;20006;-77
2021/04/16 05:19:09;;;;;;;1.08;0.35;;;;;;;17.48;50.63;103139.72;6370082;22;20005;-76
2021/04/16 05:21:37;;;;;;;1.67;0.68;;;;;;;17.40;50.67;103142.97;6369488;22;20002;-77
2021/04/16 05:24:04;;;;;;;2.58;0.60;;;;;;;17.34;50.52;103142.78;6319194;22;19990;-77
2021/04/16 05:26:30;;;;;;;2.17;0.70;;;;;;;17.29;50.31;103147.84;6371026;22;20011;-77
2021/04/16 05:28:55;;;;;;;1.73;0.70;;;;;;;17.25;49.71;103151.19;6327228;22;20026;-77
2021/04/16 05:31:39;;;;;;;3.42;1.70;;;;;;;17.26;44.60;103155.56;6336599;22;20006;-78
